Time;durP1;ratioP1;P1;durP2;ratioP2;P2;SDS_P1;SDS_P2;PMS_P1;PMS_P2;Temp;Humidity;BMP_temperature;BMP_pressure;BME280_temperature;BME280_humidity;BME280_pressure;Samples;Min_cycle;Max_cycle;Signal;HPM_P1;HPM_P2
2022/07/13 00:01:31;;;;;;;3.40;3.10;;;22.30;59.40;;;;;;5114862;28;20038;-68
2022/07/13 00:03:57;;;;;;;6.22;5.40;;;22.30;59.10;;;;;;5116166;28;20044;-68
2022/07/13 00:06:23;;;;;;;3.67;3.28;;;22.30;59.30;;;;;;5113604;28;20031;-68
2022/07/13 00:08:49;;;;;;;3.55;2.88;;;22.20;59.00;;;;;;5114942;28;20114;-68
2022/07/13 00:11:14;;;;;;;5.32;4.60;;;22.20;58.80;;;;;;5114273;28;20145;-68
2022/07/13 00:13:40;;;;;;;4.10;3.30;;;22.20;58.90;;;;;;5114174;28;20046;-67
2022/07/13 00:16:06;;;;;;;4.00;3.60;;;22.20;58.80;;;;;;5113968;28;20072;-67
2022/07/13 00:18:32;;;;;;;2.92;2.58;;;22.20;58.70;;;;;;5097843;28;20460;-67
2022/07/13 00:20:58;;;;;;;4.75;3.88;;;22.20;58.60;;;;;;5115637;28;20043;-67
2022/07/13 00:23:24;;;;;;;4.13;2.90;;;22.20;58.60;;;;;;5113545;28;20055;-67
2022/07/13 00:25:50;;;;;;;3.20;2.90;;;22.20;58.50;;;;;;5108425;28;20485;-68
2022/07/13 00:28:15;;;;;;;3.45;2.90;;;22.20;58.50;;;;;;5114764;28;20070;-68
2022/07/13 00:30:41;;;;;;;2.90;2.60;;;22.20;58.40;;;;;;5115023;28;20416;-67
2022/07/13 00:33:07;;;;;;;4.60;3.25;;;22.20;58.30;;;;;;5114400;27;20036;-67
2022/07/13 00:35:33;;;;;;;3.60;3.25;;;22.20;58.30;;;;;;5111806;28;20047;-67
2022/07/13 00:37:59;;;;;;;3.58;3.15;;;22.20;58.20;;;;;;5113964;28;20062;-67
2022/07/13 00:40:25;;;;;;;3.10;2.80;;;22.20;58.30;;;;;;5114092;28;20404;-67
2022/07/13 00:42:51;;;;;;;6.20;5.60;;;22.20;58.20;;;;;;5115278;28;20135;-67
2022/07/13 00:45:16;;;;;;;4.78;3.90;;;22.20;58.30;;;;;;5111555;28;20040;-67
2022/07/13 00:47:43;;;;;;;6.65;5.72;;;22.20;58.40;;;;;;5096396;28;20081;-68
2022/07/13 00:50:09;;;;;;;5.18;4.68;;;22.20;58.50;;;;;;5114392;28;20110;-68
2022/07/13 00:52:37;;;;;;;5.40;4.90;;;22.20;58.40;;;;;;5114406;28;20042;-68
2022/07/13 00:55:05;;;;;;;5.63;5.13;;;22.10;58.30;;;;;;5114421;28;20390;-68
2022/07/13 00:57:34;;;;;;;6.53;5.60;;;22.10;58.30;;;;;;5113711;28;20048;-67
2022/07/13 01:00:00;;;;;;;7.03;6.40;;;22.20;58.20;;;;;;5115111;28;20071;-68
2022/07/13 01:02:25;;;;;;;5.75;5.25;;;22.10;57.90;;;;;;5114538;28;20082;-67
2022/07/13 01:04:51;;;;;;;4.70;4.30;;;22.10;57.90;;;;;;5113008;28;20089;-68
2022/07/13 01:07:17;;;;;;;6.82;5.55;;;22.10;57.90;;;;;;5095577;28;20036;-63
2022/07/13 01:09:43;;;;;;;6.43;5.63;;;22.10;57.90;;;;;;5114558;27;20407;-63
2022/07/13 01:12:09;;;;;;;5.63;5.13;;;22.10;58.00;;;;;;5113279;28;20498;-64
2022/07/13 01:14:36;;;;;;;5.88;5.18;;;22.10;57.90;;;;;;5113758;28;20505;-64
2022/07/13 01:17:02;;;;;;;6.05;5.45;;;22.10;57.80;;;;;;5114039;28;20392;-63
2022/07/13 01:19:28;;;;;;;6.95;5.38;;;22.10;57.80;;;;;;5113254;28;20039;-63
2022/07/13 01:22:00;;;;;;;7.05;5.07;;;22.00;57.70;;;;;;5112770;28;20039;-64
2022/07/13 01:24:31;;;;;;;5.25;4.75;;;22.00;57.60;;;;;;5112550;28;20495;-64
2022/07/13 01:26:59;;;;;;;7.30;6.60;;;22.10;57.60;;;;;;5113250;28;20035;-64
2022/07/13 01:29:24;;;;;;;6.20;5.57;;;22.00;57.40;;;;;;5112558;28;20046;-63
2022/07/13 01:31:50;;;;;;;5.03;4.60;;;22.00;57.50;;;;;;5114100;28;20032;-63
2022/07/13 01:34:17;;;;;;;5.65;5.05;;;22.00;57.40;;;;;;5095999;28;20051;-64
2022/07/13 01:36:45;;;;;;;5.68;5.13;;;22.00;57.40;;;;;;5112326;28;20054;-64
2022/07/13 01:39:11;;;;;;;5.82;5.28;;;22.00;57.40;;;;;;5095977;28;20434;-63
2022/07/13 01:41:36;;;;;;;6.63;5.00;;;22.00;57.30;;;;;;5113948;28;20040;-64
2022/07/13 01:44:02;;;;;;;5.55;4.72;;;22.00;57.30;;;;;;5113895;28;20472;-63
2022/07/13 01:46:28;;;;;;;6.97;5.10;;;22.00;57.30;;;;;;5110551;28;20583;-63
2022/07/13 01:48:54;;;;;;;5.15;4.57;;;22.00;57.10;;;;;;5112718;28;20376;-64
2022/07/13 01:51:20;;;;;;;5.07;4.55;;;22.00;57.10;;;;;;5113254;28;20080;-63
2022/07/13 01:53:46;;;;;;;5.50;4.88;;;21.90;57.10;;;;;;5112425;28;20383;-63
2022/07/13 01:56:12;;;;;;;5.57;5.07;;;21.90;57.20;;;;;;5111263;28;20487;-63
2022/07/13 01:58:38;;;;;;;5.70;5.13;;;21.90;57.10;;;;;;5111989;28;20036;-63
2022/07/13 02:01:04;;;;;;;6.13;4.88;;;22.00;57.20;;;;;;5112491;28;20071;-63
2022/07/13 02:03:31;;;;;;;5.38;4.80;;;21.90;57.20;;;;;;5111704;28;20039;-63
2022/07/13 02:05:58;;;;;;;5.50;5.00;;;22.00;57.20;;;;;;5113566;28;20695;-63
2022/07/13 02:08:24;;;;;;;4.47;4.07;;;21.90;57.10;;;;;;5113346;28;20103;-64
2022/07/13 02:10:50;;;;;;;5.47;4.55;;;21.90;57.10;;;;;;5113262;28;20070;-63
2022/07/13 02:13:16;;;;;;;4.82;4.43;;;21.90;57.10;;;;;;5094652;28;20504;-64
2022/07/13 02:15:43;;;;;;;5.05;4.55;;;21.90;57.10;;;;;;5113827;28;20040;-64
2022/07/13 02:18:09;;;;;;;5.13;4.63;;;21.90;57.00;;;;;;5111464;28;20388;-64
2022/07/13 02:20:35;;;;;;;5.47;4.32;;;21.90;57.00;;;;;;5113421;28;20507;-63
2022/07/13 02:23:02;;;;;;;4.53;3.80;;;21.90;57.00;;;;;;5111889;28;20039;-63
2022/07/13 02:25:27;;;;;;;5.10;4.60;;;21.90;57.00;;;;;;5113053;28;20119;-63
2022/07/13 02:27:53;;;;;;;4.45;4.05;;;21.90;57.10;;;;;;5111005;28;20110;-63
2022/07/13 02:30:19;;;;;;;4.20;3.80;;;21.90;57.00;;;;;;5094848;28;20039;-63
2022/07/13 02:32:45;;;;;;;4.07;3.67;;;21.90;56.90;;;;;;5113181;28;20044;-64
2022/07/13 02:35:12;;;;;;;4.47;3.88;;;21.90;56.90;;;;;;5111152;28;20073;-64
2022/07/13 02:37:39;;;;;;;7.15;4.78;;;21.90;57.00;;;;;;5112205;28;20492;-64
2022/07/13 02:40:07;;;;;;;4.10;3.70;;;21.90;57.00;;;;;;5095167;28;20122;-64
2022/07/13 02:42:32;;;;;;;4.22;3.83;;;21.90;57.00;;;;;;5111917;28;20090;-64
2022/07/13 02:44:58;;;;;;;5.10;4.60;;;21.90;57.00;;;;;;5113130;28;20538;-64
2022/07/13 02:47:24;;;;;;;5.07;4.10;;;21.90;57.30;;;;;;5110618;28;20436;-64
2022/07/13 02:49:50;;;;;;;5.10;4.60;;;21.90;57.00;;;;;;5094147;28;20096;-65
2022/07/13 02:52:16;;;;;;;4.78;4.30;;;21.90;56.90;;;;;;5111676;28;20063;-69
2022/07/13 02:54:42;;;;;;;5.28;4.63;;;21.90;56.90;;;;;;5110889;28;20062;-64
2022/07/13 02:57:08;;;;;;;4.90;4.15;;;21.80;56.90;;;;;;5111982;28;20101;-64
2022/07/13 02:59:36;;;;;;;5.53;4.32;;;21.80;56.90;;;;;;5112231;28;20039;-64
2022/07/13 03:02:03;;;;;;;4.15;3.75;;;21.80;56.90;;;;;;5114876;28;20508;-64
2022/07/13 03:04:29;;;;;;;5.10;4.38;;;21.80;56.90;;;;;;5116967;28;20043;-64
2022/07/13 03:06:54;;;;;;;6.10;4.60;;;21.80;56.90;;;;;;5115151;28;20077;-64
2022/07/13 03:09:20;;;;;;;6.75;5.38;;;21.80;56.90;;;;;;5115924;28;20047;-63
2022/07/13 03:11:46;;;;;;;6.40;5.50;;;21.80;56.90;;;;;;5114983;28;20373;-62
2022/07/13 03:14:11;;;;;;;5.13;4.63;;;21.80;56.90;;;;;;5116624;28;20031;-63
2022/07/13 03:16:37;;;;;;;5.80;4.20;;;21.80;57.00;;;;;;5116046;28;20118;-63
2022/07/13 03:19:03;;;;;;;5.70;4.60;;;21.80;57.10;;;;;;5115939;28;20122;-63
2022/07/13 03:21:29;;;;;;;4.40;3.97;;;21.80;57.20;;;;;;5116858;28;20395;-63
2022/07/13 03:23:58;;;;;;;4.28;3.45;;;21.70;57.10;;;;;;5114472;28;20128;-63
2022/07/13 03:26:24;;;;;;;4.40;4.00;;;21.70;57.00;;;;;;5098507;28;20079;-63
2022/07/13 03:28:50;;;;;;;4.03;3.63;;;21.70;57.10;;;;;;5098525;28;20039;-63
2022/07/13 03:31:19;;;;;;;4.20;3.80;;;21.70;57.20;;;;;;5098234;28;20376;-63
2022/07/13 03:33:45;;;;;;;3.40;3.10;;;21.70;57.20;;;;;;5114182;28;20032;-63
2022/07/13 03:36:11;;;;;;;3.97;3.65;;;21.70;57.20;;;;;;5114518;28;20043;-63
2022/07/13 03:38:37;;;;;;;5.18;3.90;;;21.70;57.10;;;;;;5115288;28;22036;-63
2022/07/13 03:41:03;;;;;;;4.35;3.95;;;21.70;57.30;;;;;;5116368;28;20039;-63
2022/07/13 03:43:29;;;;;;;5.53;3.60;;;21.70;57.30;;;;;;5115099;28;20039;-63
2022/07/13 03:45:55;;;;;;;3.97;3.50;;;21.70;57.20;;;;;;5114076;28;20423;-63
2022/07/13 03:48:21;;;;;;;3.70;3.38;;;21.70;57.20;;;;;;5097675;28;20122;-63
2022/07/13 03:50:47;;;;;;;4.20;3.38;;;21.70;57.20;;;;;;5114758;28;20092;-63
2022/07/13 03:53:14;;;;;;;4.47;3.30;;;21.70;57.20;;;;;;5113936;28;20058;-63
2022/07/13 03:55:43;;;;;;;3.60;3.30;;;21.70;57.20;;;;;;5097729;28;20052;-63
2022/07/13 03:58:10;;;;;;;3.97;3.42;;;21.70;57.20;;;;;;5115348;28;20039;-63
2022/07/13 04:00:36;;;;;;;4.40;4.00;;;21.70;57.30;;;;;;5116046;28;20107;-63
2022/07/13 04:03:03;;;;;;;4.22;3.83;;;21.70;57.40;;;;;;5113324;28;20047;-63
2022/07/13 04:05:28;;;;;;;4.70;3.97;;;21.70;57.60;;;;;;5097361;28;20044;-65
2022/07/13 04:07:54;;;;;;;4.70;4.25;;;21.70;57.60;;;;;;5115162;28;20039;-64
2022/07/13 04:10:21;;;;;;;4.65;4.25;;;21.70;57.60;;;;;;5115746;28;20061;-64
2022/07/13 04:12:48;;;;;;;4.25;3.85;;;21.70;57.70;;;;;;5114113;28;20114;-62
2022/07/13 04:15:14;;;;;;;4.00;3.63;;;21.70;57.70;;;;;;5114390;28;20043;-63
2022/07/13 04:17:41;;;;;;;4.40;4.00;;;21.70;57.70;;;;;;5114485;28;20050;-63
2022/07/13 04:20:07;;;;;;;4.93;4.25;;;21.70;57.80;;;;;;5097164;28;20168;-64
2022/07/13 04:22:33;;;;;;;4.88;4.35;;;21.70;57.90;;;;;;5096468;28;20044;-63
2022/07/13 04:24:59;;;;;;;5.03;4.60;;;21.70;57.90;;;;;;5115071;28;20042;-63
2022/07/13 04:27:25;;;;;;;5.15;4.65;;;21.70;58.00;;;;;;5115787;28;20377;-63
2022/07/13 04:29:51;;;;;;;4.75;4.25;;;21.70;58.00;;;;;;5115568;28;20042;-63
2022/07/13 04:32:16;;;;;;;4.78;4.25;;;21.70;58.00;;;;;;5112382;28;20042;-63
2022/07/13 04:34:42;;;;;;;6.45;4.50;;;21.70;57.90;;;;;;5113972;28;20051;-63
2022/07/13 04:37:08;;;;;;;4.03;3.63;;;21.70;57.90;;;;;;5115117;28;20032;-63
2022/07/13 04:39:33;;;;;;;3.95;3.55;;;21.70;57.80;;;;;;5113978;28;20043;-63
2022/07/13 04:41:59;;;;;;;4.85;4.35;;;21.70;57.90;;;;;;5093013;28;20043;-63
2022/07/13 04:44:26;;;;;;;4.40;4.00;;;21.70;57.90;;;;;;5113673;28;20059;-62
2022/07/13 04:46:53;;;;;;;4.70;3.97;;;21.70;57.90;;;;;;5115271;28;20040;-62
2022/07/13 04:49:22;;;;;;;4.65;4.20;;;21.70;58.00;;;;;;5095876;28;20032;-63
2022/07/13 04:51:48;;;;;;;4.00;3.60;;;21.70;58.10;;;;;;5096584;28;20055;-63
2022/07/13 04:54:18;;;;;;;5.40;4.32;;;21.70;58.50;;;;;;5113336;28;20049;-64
2022/07/13 04:56:43;;;;;;;5.28;4.60;;;21.70;58.20;;;;;;5115079;28;20039;-64
2022/07/13 04:59:09;;;;;;;3.88;3.58;;;21.70;58.20;;;;;;5112504;28;20035;-64
2022/07/13 05:01:35;;;;;;;5.93;5.03;;;21.70;58.10;;;;;;5113095;28;20544;-64
2022/07/13 05:04:01;;;;;;;6.35;5.00;;;21.70;58.30;;;;;;5113760;28;20069;-63
2022/07/13 05:06:27;;;;;;;5.03;4.28;;;21.80;58.50;;;;;;5113539;28;20048;-63
2022/07/13 05:08:53;;;;;;;4.90;4.47;;;21.80;58.60;;;;;;5114175;28;20043;-63
2022/07/13 05:11:19;;;;;;;5.07;4.57;;;21.80;58.60;;;;;;5114362;28;20023;-63
2022/07/13 05:13:45;;;;;;;5.43;3.95;;;21.80;58.70;;;;;;5096263;28;20040;-63
2022/07/13 05:16:11;;;;;;;4.93;4.40;;;21.80;58.50;;;;;;5113567;28;20162;-63
2022/07/13 05:18:36;;;;;;;4.30;3.90;;;21.80;58.60;;;;;;5113538;28;20548;-63
2022/07/13 05:21:02;;;;;;;6.57;4.15;;;21.90;58.60;;;;;;5096441;28;20038;-63
2022/07/13 05:23:28;;;;;;;4.40;3.80;;;21.90;58.70;;;;;;5095715;28;20058;-64
2022/07/13 05:25:54;;;;;;;4.53;3.60;;;21.90;58.70;;;;;;5111418;28;20496;-63
2022/07/13 05:28:19;;;;;;;4.35;3.92;;;21.90;58.60;;;;;;5112328;28;20483;-62
2022/07/13 05:30:45;;;;;;;4.60;3.83;;;22.00;58.70;;;;;;5113791;28;20038;-63
2022/07/13 05:33:11;;;;;;;5.53;4.45;;;22.00;58.60;;;;;;5113012;28;20036;-63
2022/07/13 05:35:36;;;;;;;4.60;3.95;;;22.00;58.60;;;;;;5110253;28;20082;-66
2022/07/13 05:38:02;;;;;;;6.35;4.32;;;22.10;58.60;;;;;;5095866;28;20036;-63
2022/07/13 05:40:28;;;;;;;4.28;3.83;;;22.10;58.50;;;;;;5095463;28;20043;-63
2022/07/13 05:42:54;;;;;;;4.18;3.78;;;22.10;58.40;;;;;;5112713;28;20100;-63
2022/07/13 05:45:19;;;;;;;4.63;4.07;;;22.20;58.50;;;;;;5112747;28;20377;-63
2022/07/13 05:47:46;;;;;;;4.63;4.22;;;22.20;58.80;;;;;;5112450;28;20039;-65
2022/07/13 05:50:14;;;;;;;4.68;4.18;;;22.30;58.70;;;;;;5114055;28;20074;-63
2022/07/13 05:52:41;;;;;;;5.63;4.97;;;22.40;58.70;;;;;;5110718;28;20031;-69
2022/07/13 05:55:08;;;;;;;7.55;5.15;;;22.40;58.70;;;;;;5108389;28;20047;-70
2022/07/13 05:57:33;;;;;;;5.22;4.10;;;22.50;58.80;;;;;;5095087;28;20043;-68
2022/07/13 05:59:59;;;;;;;5.75;5.18;;;22.50;58.70;;;;;;5095883;28;20038;-68
2022/07/13 06:02:26;;;;;;;5.65;4.75;;;22.60;58.60;;;;;;5107546;28;20172;-70
2022/07/13 06:04:52;;;;;;;5.53;5.03;;;22.60;58.60;;;;;;5108403;28;20040;-70
2022/07/13 06:07:17;;;;;;;5.93;4.57;;;22.70;58.40;;;;;;5103545;28;20065;-70
2022/07/13 06:09:43;;;;;;;5.93;5.00;;;22.80;58.40;;;;;;5102319;28;20032;-70
2022/07/13 06:12:09;;;;;;;7.55;4.85;;;22.80;58.30;;;;;;5104835;28;20487;-70
2022/07/13 06:14:34;;;;;;;5.72;4.68;;;23.00;58.40;;;;;;5113272;28;20477;-70
2022/07/13 06:17:00;;;;;;;7.03;4.95;;;23.10;58.60;;;;;;5110575;28;20067;-70
2022/07/13 06:19:26;;;;;;;5.88;5.28;;;23.20;58.50;;;;;;5112170;28;20040;-67
2022/07/13 06:21:51;;;;;;;6.43;5.82;;;23.30;58.40;;;;;;5094969;28;20488;-69
2022/07/13 06:24:17;;;;;;;6.25;5.65;;;23.50;58.40;;;;;;5094820;28;20042;-67
2022/07/13 06:26:43;;;;;;;6.68;5.93;;;23.50;58.30;;;;;;5111952;28;20536;-68
2022/07/13 06:29:08;;;;;;;6.68;5.88;;;23.70;58.80;;;;;;5112494;28;20042;-67
2022/07/13 06:31:34;;;;;;;8.13;6.90;;;24.00;59.00;;;;;;5111752;28;20507;-67
2022/07/13 06:34:00;;;;;;;7.63;6.70;;;24.40;58.20;;;;;;5111996;28;20043;-67
2022/07/13 06:36:25;;;;;;;10.10;7.38;;;24.70;57.30;;;;;;5111842;28;20044;-67
2022/07/13 06:38:51;;;;;;;8.75;7.82;;;24.90;56.60;;;;;;5111752;28;20048;-67
2022/07/13 06:41:17;;;;;;;8.50;6.93;;;25.10;56.50;;;;;;5094454;28;20043;-67
2022/07/13 06:43:43;;;;;;;10.65;7.35;;;25.40;55.80;;;;;;5094694;28;20035;-70
2022/07/13 06:46:09;;;;;;;8.25;6.57;;;25.60;55.60;;;;;;5111970;28;20488;-70
2022/07/13 06:48:35;;;;;;;7.95;7.13;;;25.70;55.30;;;;;;5110677;28;20077;-70
2022/07/13 06:51:01;;;;;;;8.13;7.00;;;26.00;55.10;;;;;;5111972;28;20046;-70
2022/07/13 06:53:27;;;;;;;7.32;6.68;;;26.10;54.70;;;;;;5110930;28;20407;-70
2022/07/13 06:55:54;;;;;;;9.43;7.18;;;26.20;54.10;;;;;;5105503;28;20479;-70
2022/07/13 06:58:21;;;;;;;7.20;6.50;;;26.20;53.50;;;;;;5104703;28;20561;-70
2022/07/13 07:00:47;;;;;;;7.97;7.18;;;26.30;53.60;;;;;;5104114;28;20051;-69
2022/07/13 07:03:13;;;;;;;8.00;6.47;;;26.30;53.40;;;;;;5104466;28;20071;-70
2022/07/13 07:05:39;;;;;;;9.82;7.45;;;26.30;53.10;;;;;;5109806;28;20444;-70
2022/07/13 07:08:05;;;;;;;7.57;6.63;;;26.30;52.90;;;;;;5111180;28;20050;-70
2022/07/13 07:10:31;;;;;;;8.18;7.20;;;26.30;53.10;;;;;;5094539;28;20036;-70
2022/07/13 07:12:56;;;;;;;9.82;7.68;;;26.20;53.40;;;;;;5111525;28;20085;-70
2022/07/13 07:15:23;;;;;;;8.43;6.65;;;26.20;53.50;;;;;;5094343;28;20047;-70
2022/07/13 07:17:49;;;;;;;7.75;6.30;;;26.20;53.60;;;;;;5107084;28;20078;-69
2022/07/13 07:20:16;;;;;;;7.22;6.30;;;26.10;53.90;;;;;;5111363;28;20046;-69
2022/07/13 07:22:43;;;;;;;7.18;6.40;;;26.10;54.20;;;;;;5105837;28;20047;-70
2022/07/13 07:25:09;;;;;;;10.98;7.38;;;26.10;54.50;;;;;;5096209;28;20048;-70
2022/07/13 07:27:36;;;;;;;7.78;6.57;;;26.10;54.40;;;;;;5110879;28;20031;-69
2022/07/13 07:30:03;;;;;;;7.45;6.55;;;26.10;54.60;;;;;;5111790;28;20480;-70
2022/07/13 07:32:28;;;;;;;7.20;6.50;;;26.00;54.70;;;;;;5111189;28;20085;-66
2022/07/13 07:34:54;;;;;;;8.77;7.82;;;26.00;55.10;;;;;;5112465;28;20051;-66
2022/07/13 07:37:21;;;;;;;6.80;5.70;;;26.00;54.70;;;;;;5111676;28;20122;-66
2022/07/13 07:39:51;;;;;;;9.40;6.95;;;26.00;54.70;;;;;;5111171;28;20144;-66
2022/07/13 07:42:18;;;;;;;7.70;6.88;;;26.10;54.90;;;;;;5111222;28;20054;-67
2022/07/13 07:44:44;;;;;;;7.20;6.50;;;26.10;54.80;;;;;;5111354;28;20044;-67
2022/07/13 07:47:10;;;;;;;8.70;6.80;;;26.20;54.90;;;;;;5110924;28;20035;-68
2022/07/13 07:49:36;;;;;;;7.60;6.50;;;26.30;54.90;;;;;;5115954;28;20042;-68
2022/07/13 07:52:02;;;;;;;7.60;5.55;;;26.40;54.70;;;;;;5115004;28;20126;-68
2022/07/13 07:54:28;;;;;;;8.32;5.30;;;26.50;54.70;;;;;;5097590;28;20062;-68
2022/07/13 07:56:53;;;;;;;8.82;5.78;;;26.70;54.50;;;;;;5115089;28;20047;-68
2022/07/13 07:59:19;;;;;;;6.18;5.47;;;27.00;54.30;;;;;;5114984;28;20077;-68
2022/07/13 08:01:45;;;;;;;6.10;5.22;;;27.30;54.00;;;;;;5114486;28;20035;-67
2022/07/13 08:04:10;;;;;;;6.38;5.05;;;27.50;53.70;;;;;;5114182;28;20084;-67
2022/07/13 08:06:38;;;;;;;7.28;4.88;;;27.60;53.00;;;;;;5114920;28;20044;-66
2022/07/13 08:09:04;;;;;;;6.10;4.57;;;27.80;53.00;;;;;;5114546;28;20044;-67
2022/07/13 08:11:29;;;;;;;6.97;4.60;;;28.00;52.50;;;;;;5114668;28;20031;-71
2022/07/13 08:13:55;;;;;;;9.18;5.20;;;28.20;52.20;;;;;;5114494;28;20032;-70
2022/07/13 08:16:21;;;;;;;5.43;4.90;;;28.40;52.10;;;;;;5114980;28;20058;-70
2022/07/13 08:18:47;;;;;;;6.68;4.60;;;28.50;52.00;;;;;;5114485;28;20446;-70
2022/07/13 08:21:13;;;;;;;7.20;5.00;;;28.80;51.80;;;;;;5114545;28;20048;-71
2022/07/13 08:23:51;;;;;;;5.82;5.22;;;29.10;51.80;;;;;;5097282;28;20052;-70
2022/07/13 08:26:24;;;;;;;6.30;5.25;;;29.30;51.20;;;;;;5115683;28;20156;-71
2022/07/13 08:28:51;;;;;;;7.82;5.93;;;29.60;50.70;;;;;;5113459;28;20039;-70
2022/07/13 08:31:17;;;;;;;5.65;5.15;;;29.80;50.10;;;;;;5114149;28;20514;-70
2022/07/13 08:39:12;;;;;;;5.93;4.75;;;30.40;48.70;;;;;;5114687;28;20501;-66
2022/07/13 08:41:39;;;;;;;6.18;4.93;;;30.60;48.70;;;;;;5091928;28;20067;-66
2022/07/13 08:44:05;;;;;;;6.63;4.80;;;30.80;48.50;;;;;;5111953;28;20047;-71
2022/07/13 08:46:31;;;;;;;7.82;5.05;;;31.00;48.50;;;;;;5093131;28;20035;-70
2022/07/13 08:48:57;;;;;;;7.05;5.00;;;31.20;47.90;;;;;;5109172;27;20067;-70
2022/07/13 08:51:24;;;;;;;6.03;5.20;;;31.50;47.10;;;;;;5102252;28;20165;-69
2022/07/13 08:53:51;;;;;;;5.40;4.88;;;31.70;46.90;;;;;;5105068;28;20139;-70
2022/07/13 08:56:17;;;;;;;6.60;5.22;;;31.90;46.80;;;;;;5095206;28;20052;-70
2022/07/13 08:58:43;;;;;;;5.90;4.72;;;32.10;46.50;;;;;;5110887;28;20036;-70
2022/07/13 09:01:10;;;;;;;5.07;4.50;;;32.30;45.90;;;;;;5105443;28;20047;-69
2022/07/13 09:03:36;;;;;;;5.68;4.47;;;32.60;45.80;;;;;;5109757;28;20043;-72
2022/07/13 09:06:03;;;;;;;5.53;4.68;;;32.80;45.30;;;;;;5107025;28;20040;-72
2022/07/13 09:08:29;;;;;;;5.72;4.68;;;33.00;45.20;;;;;;5112892;28;20067;-72
2022/07/13 09:10:58;;;;;;;5.13;4.28;;;33.10;44.60;;;;;;5114101;28;20086;-73
2022/07/13 09:13:44;;;;;;;4.50;4.03;;;33.30;44.70;;;;;;5113961;28;20511;-72
2022/07/13 09:16:19;;;;;;;5.38;4.88;;;33.40;44.90;;;;;;5113498;28;20443;-73
2022/07/13 09:18:51;;;;;;;5.28;4.80;;;33.60;44.30;;;;;;5114089;28;20048;-72
2022/07/13 09:21:18;;;;;;;5.45;4.75;;;33.60;44.00;;;;;;5114071;28;20027;-72
2022/07/13 09:23:49;;;;;;;6.00;4.13;;;33.80;43.50;;;;;;5096520;28;20044;-72
2022/07/13 09:26:14;;;;;;;3.92;3.53;;;33.80;43.00;;;;;;5113174;28;20122;-68
2022/07/13 09:28:44;;;;;;;4.50;4.07;;;33.90;43.30;;;;;;5096457;28;20166;-69
2022/07/13 09:31:11;;;;;;;4.40;3.78;;;34.00;42.70;;;;;;5112888;28;20408;-68
2022/07/13 09:33:38;;;;;;;5.85;4.30;;;34.10;42.90;;;;;;5113178;28;20077;-68
2022/07/13 09:36:16;;;;;;;6.35;3.92;;;34.10;42.30;;;;;;5113310;28;20512;-68
2022/07/13 09:38:44;;;;;;;5.18;4.00;;;34.10;42.60;;;;;;5113504;28;20062;-67
2022/07/13 09:41:19;;;;;;;4.80;3.97;;;34.20;42.30;;;;;;5113006;28;20055;-67
2022/07/13 09:47:03;;;;;;;4.15;2.45;;;34.30;41.60;;;;;;5101399;28;20062;-67
2022/07/13 09:49:41;;;;;;;5.15;3.25;;;34.30;41.40;;;;;;5112811;28;20093;-67
2022/07/13 09:52:18;;;;;;;6.13;2.75;;;34.40;40.20;;;;;;5112536;28;20089;-67
2022/07/13 09:54:50;;;;;;;3.78;2.22;;;34.40;40.60;;;;;;5112477;28;20083;-67
2022/07/13 09:57:18;;;;;;;2.40;1.63;;;34.40;40.00;;;;;;5112840;28;20081;-68
2022/07/13 09:59:44;;;;;;;2.70;1.70;;;34.40;39.30;;;;;;5111757;28;20032;-68
2022/07/13 10:02:11;;;;;;;6.50;2.20;;;34.30;39.30;;;;;;5112603;28;20047;-68
2022/07/13 10:04:37;;;;;;;2.20;1.60;;;34.30;39.30;;;;;;5112580;28;20052;-68
2022/07/13 10:07:04;;;;;;;2.58;1.92;;;34.40;39.40;;;;;;5113164;28;20043;-68
2022/07/13 10:09:31;;;;;;;2.60;1.67;;;34.50;39.00;;;;;;5111952;28;20523;-67
2022/07/13 10:11:58;;;;;;;2.30;1.50;;;34.50;38.80;;;;;;5110456;28;20042;-67
2022/07/13 10:14:24;;;;;;;3.22;2.03;;;34.50;38.90;;;;;;5112082;28;20046;-68
2022/07/13 10:16:52;;;;;;;2.78;1.52;;;34.60;38.50;;;;;;5094737;28;20039;-68
2022/07/13 10:19:19;;;;;;;3.75;1.60;;;34.60;38.30;;;;;;5112647;28;20043;-68
2022/07/13 10:21:54;;;;;;;2.00;1.52;;;34.60;38.00;;;;;;5112477;28;20376;-68
2022/07/13 10:24:20;;;;;;;3.28;1.50;;;34.60;37.90;;;;;;5112289;28;20081;-68
2022/07/13 10:26:49;;;;;;;4.82;1.40;;;34.60;37.80;;;;;;5094743;28;20075;-68
2022/07/13 10:29:15;;;;;;;4.30;1.60;;;34.60;38.00;;;;;;5095004;28;20032;-68
2022/07/13 10:31:43;;;;;;;2.58;1.52;;;34.60;37.50;;;;;;5111484;28;20042;-68
2022/07/13 10:34:10;;;;;;;3.20;1.70;;;34.60;37.30;;;;;;5095450;28;20396;-67
2022/07/13 10:36:51;;;;;;;3.10;1.60;;;34.60;37.30;;;;;;5112186;28;20108;-67
2022/07/13 10:39:19;;;;;;;1.88;1.40;;;34.60;38.00;;;;;;5111712;28;20126;-68
2022/07/13 10:42:01;;;;;;;3.20;1.70;;;34.70;37.80;;;;;;5112008;28;20048;-67
2022/07/13 10:44:36;;;;;;;3.40;1.58;;;34.70;37.40;;;;;;5092078;28;20060;-68
2022/07/13 10:47:03;;;;;;;2.53;1.55;;;34.80;37.20;;;;;;5111560;28;20039;-67
2022/07/13 10:49:32;;;;;;;4.50;1.67;;;34.80;37.40;;;;;;5095055;28;20116;-68
2022/07/13 10:52:25;;;;;;;2.25;1.65;;;34.80;37.30;;;;;;5110881;28;20071;-67
2022/07/13 10:57:30;;;;;;;3.08;1.50;;;34.70;37.40;;;;;;5111804;28;20126;-67
2022/07/13 11:00:19;;;;;;;4.05;1.73;;;34.80;36.90;;;;;;5112275;28;20044;-67
2022/07/13 11:02:50;;;;;;;2.88;1.55;;;34.80;36.60;;;;;;5111432;28;20051;-67
2022/07/13 11:05:26;;;;;;;3.25;1.67;;;34.80;37.30;;;;;;5113056;28;20544;-67
2022/07/13 11:07:53;;;;;;;3.90;1.80;;;34.70;37.00;;;;;;5094657;28;20118;-67
2022/07/13 11:10:33;;;;;;;2.22;1.42;;;34.70;37.10;;;;;;5111441;28;20484;-66
2022/07/13 11:13:12;;;;;;;2.50;1.48;;;34.70;37.10;;;;;;5111116;28;20087;-66
2022/07/13 11:15:45;;;;;;;3.55;1.95;;;34.70;37.50;;;;;;5095526;28;20077;-66
2022/07/13 11:18:27;;;;;;;3.78;1.63;;;34.70;37.10;;;;;;5110829;28;20047;-67
2022/07/13 11:21:01;;;;;;;3.85;1.60;;;34.70;36.80;;;;;;5112547;28;20043;-66
2022/07/13 11:26:38;;;;;;;2.05;1.30;;;34.70;35.90;;;;;;5108801;28;20100;-67
2022/07/13 11:29:32;;;;;;;3.88;1.60;;;34.60;36.00;;;;;;5110986;28;20124;-67
2022/07/13 11:32:00;;;;;;;4.18;1.52;;;34.60;36.00;;;;;;5102657;28;20043;-67
2022/07/13 11:34:29;;;;;;;4.72;1.67;;;34.50;36.00;;;;;;5093956;28;20043;-68
2022/07/13 11:36:57;;;;;;;4.28;1.60;;;34.50;36.40;;;;;;5103189;28;20057;-67
2022/07/13 11:39:34;;;;;;;2.95;1.80;;;34.50;36.70;;;;;;5111846;28;20495;-67
2022/07/13 11:42:07;;;;;;;2.92;1.52;;;34.50;36.60;;;;;;5104316;28;20047;-67
2022/07/13 11:44:35;;;;;;;4.65;1.92;;;34.50;36.10;;;;;;5106801;28;20047;-67
2022/07/13 11:47:07;;;;;;;3.75;1.58;;;34.40;36.30;;;;;;5094200;28;20067;-67
2022/07/13 11:50:02;;;;;;;3.45;1.80;;;34.30;36.50;;;;;;5102911;28;20032;-67
2022/07/13 11:52:29;;;;;;;3.47;1.95;;;34.10;36.50;;;;;;5103470;28;20043;-68
2022/07/13 11:55:05;;;;;;;2.60;1.90;;;34.00;36.70;;;;;;5102738;28;20087;-68
2022/07/13 11:57:32;;;;;;;4.40;3.10;;;33.90;37.50;;;;;;5110045;27;20032;-67
2022/07/13 12:00:06;;;;;;;4.32;2.78;;;33.90;37.40;;;;;;5107494;28;20048;-67
2022/07/13 12:02:33;;;;;;;2.85;1.83;;;33.70;37.50;;;;;;5101002;28;20036;-68
2022/07/13 12:04:59;;;;;;;4.57;2.17;;;33.70;38.10;;;;;;5100929;28;20066;-71
2022/07/13 12:07:28;;;;;;;3.08;2.10;;;33.60;38.10;;;;;;5114468;28;20122;-71
2022/07/13 12:09:54;;;;;;;4.22;2.28;;;33.50;38.00;;;;;;5109718;28;20046;-71
2022/07/13 12:12:29;;;;;;;3.30;1.77;;;33.50;37.80;;;;;;5099766;28;20039;-71
2022/07/13 12:14:56;;;;;;;3.65;2.00;;;33.40;37.90;;;;;;5114853;28;20059;-71
2022/07/13 12:17:24;;;;;;;5.03;2.08;;;33.30;37.50;;;;;;5112562;28;20063;-71
2022/07/13 12:19:51;;;;;;;4.13;1.92;;;33.30;37.40;;;;;;5101890;28;20131;-71
2022/07/13 12:22:21;;;;;;;3.17;2.08;;;33.20;37.70;;;;;;5114671;28;20086;-71
2022/07/13 12:24:47;;;;;;;2.72;1.65;;;33.10;37.00;;;;;;5084588;28;20079;-71
2022/07/13 12:27:27;;;;;;;4.15;1.33;;;33.00;37.20;;;;;;5101209;28;20516;-71
2022/07/13 12:30:10;;;;;;;3.80;1.67;;;32.90;37.50;;;;;;5083447;28;20036;-71
2022/07/13 12:32:59;;;;;;;3.63;1.42;;;32.80;37.40;;;;;;5077628;28;20048;-72
2022/07/13 12:35:26;;;;;;;2.90;2.00;;;32.80;37.80;;;;;;5093662;28;20048;-71
2022/07/13 12:37:52;;;;;;;2.13;1.40;;;32.60;37.60;;;;;;5113524;28;20054;-71
2022/07/13 12:40:41;;;;;;;3.28;1.73;;;32.60;37.90;;;;;;5099406;28;20440;-71
2022/07/13 12:43:25;;;;;;;3.72;2.10;;;32.60;38.50;;;;;;5112350;28;20122;-71
2022/07/13 12:45:53;;;;;;;4.57;1.70;;;32.50;38.90;;;;;;5102179;28;20127;-71
2022/07/13 12:48:25;;;;;;;2.53;1.58;;;32.40;38.70;;;;;;5109909;28;20168;-71
2022/07/13 12:51:08;;;;;;;3.83;1.92;;;32.30;38.70;;;;;;5097735;28;20040;-71
2022/07/13 12:53:49;;;;;;;3.88;1.90;;;32.20;39.00;;;;;;5101437;28;20172;-71
2022/07/13 12:56:17;;;;;;;2.65;1.63;;;32.10;39.40;;;;;;5097020;28;20181;-71
2022/07/13 12:58:57;;;;;;;2.60;1.58;;;32.00;39.30;;;;;;5115166;28;20411;-71
2022/07/13 13:01:37;;;;;;;2.35;1.77;;;31.90;39.90;;;;;;5095138;28;20032;-68
2022/07/13 13:04:06;;;;;;;3.75;2.08;;;31.80;40.40;;;;;;5102362;28;20479;-67